sensor_id;sensor_type;location;lat;lon;timestamp;pressure;altitude;pressure_sealevel;temperature;humidity
21153;BME280;10734;44.792;20.482;2022-11-20T00:01:17;99192.22;;;7.16;nan
21153;BME280;10734;44.792;20.482;2022-11-20T00:03:44;99197.66;;;7.15;nan
21153;BME280;10734;44.792;20.482;2022-11-20T00:06:14;99214.50;;;7.17;nan
21153;BME280;10734;44.792;20.482;2022-11-20T00:08:42;99220.75;;;7.17;nan
21153;BME280;10734;44.792;20.482;2022-11-20T00:11:10;99215.47;;;7.16;nan
21153;BME280;10734;44.792;20.482;2022-11-20T00:13:42;99209.13;;;7.17;nan
21153;BME280;10734;44.792;20.482;2022-11-20T00:16:11;99228.78;;;7.17;nan
21153;BME280;10734;44.792;20.482;2022-11-20T00:18:38;99254.59;;;7.18;nan
21153;BME280;10734;44.792;20.482;2022-11-20T00:21:16;99252.78;;;7.19;nan
21153;BME280;10734;44.792;20.482;2022-11-20T00:23:44;99266.09;;;7.20;nan
21153;BME280;10734;44.792;20.482;2022-11-20T00:26:13;99252.63;;;7.22;nan
21153;BME280;10734;44.792;20.482;2022-11-20T00:28:42;99255.19;;;7.23;nan
21153;BME280;10734;44.792;20.482;2022-11-20T00:31:14;99260.47;;;7.25;nan
21153;BME280;10734;44.792;20.482;2022-11-20T00:33:41;99258.59;;;7.27;nan
21153;BME280;10734;44.792;20.482;2022-11-20T00:36:10;99277.34;;;7.27;nan
21153;BME280;10734;44.792;20.482;2022-11-20T00:38:37;99291.44;;;7.30;nan
21153;BME280;10734;44.792;20.482;2022-11-20T00:41:07;99270.75;;;7.32;nan
21153;BME280;10734;44.792;20.482;2022-11-20T00:43:34;99279.66;;;7.33;nan
21153;BME280;10734;44.792;20.482;2022-11-20T00:46:08;99265.34;;;7.34;nan
21153;BME280;10734;44.792;20.482;2022-11-20T00:48:35;99237.66;;;7.33;nan
21153;BME280;10734;44.792;20.482;2022-11-20T00:51:02;99223.34;;;7.34;nan
21153;BME280;10734;44.792;20.482;2022-11-20T00:53:29;99189.38;;;7.35;nan
21153;BME280;10734;44.792;20.482;2022-11-20T00:56:05;99133.13;;;7.35;nan
21153;BME280;10734;44.792;20.482;2022-11-20T00:58:34;99049.31;;;7.33;nan
21153;BME280;10734;44.792;20.482;2022-11-20T01:01:08;99021.84;;;7.29;nan
21153;BME280;10734;44.792;20.482;2022-11-20T01:03:38;98937.22;;;7.27;nan
21153;BME280;10734;44.792;20.482;2022-11-20T01:06:09;98922.56;;;7.18;nan
21153;BME280;10734;44.792;20.482;2022-11-20T01:08:37;98950.31;;;7.17;nan
21153;BME280;10734;44.792;20.482;2022-11-20T01:11:13;99021.63;;;7.18;nan
21153;BME280;10734;44.792;20.482;2022-11-20T01:13:40;99014.63;;;7.16;nan
21153;BME280;10734;44.792;20.482;2022-11-20T01:16:34;99014.56;;;7.17;nan
21153;BME280;10734;44.792;20.482;2022-11-20T01:19:04;98985.97;;;7.18;nan
21153;BME280;10734;44.792;20.482;2022-11-20T01:21:36;98994.94;;;7.17;nan
21153;BME280;10734;44.792;20.482;2022-11-20T01:24:05;99046.69;;;7.17;nan
21153;BME280;10734;44.792;20.482;2022-11-20T01:26:35;99083.91;;;7.22;nan
21153;BME280;10734;44.792;20.482;2022-11-20T01:29:03;99089.09;;;7.25;nan
21153;BME280;10734;44.792;20.482;2022-11-20T01:31:32;99046.25;;;7.25;nan
21153;BME280;10734;44.792;20.482;2022-11-20T01:34:02;99050.81;;;7.23;nan
21153;BME280;10734;44.792;20.482;2022-11-20T01:36:30;99073.19;;;7.22;nan
21153;BME280;10734;44.792;20.482;2022-11-20T01:38:59;99089.78;;;7.28;nan
21153;BME280;10734;44.792;20.482;2022-11-20T01:41:29;99096.09;;;7.27;nan
21153;BME280;10734;44.792;20.482;2022-11-20T01:44:18;99104.19;;;7.26;nan
21153;BME280;10734;44.792;20.482;2022-11-20T01:46:56;99096.25;;;7.24;nan
21153;BME280;10734;44.792;20.482;2022-11-20T01:49:36;99103.50;;;7.22;nan
21153;BME280;10734;44.792;20.482;2022-11-20T01:52:10;99090.97;;;7.23;nan
21153;BME280;10734;44.792;20.482;2022-11-20T01:54:43;99090.97;;;7.23;nan
21153;BME280;10734;44.792;20.482;2022-11-20T01:57:13;99081.13;;;7.23;nan
21153;BME280;10734;44.792;20.482;2022-11-20T01:59:45;99057.91;;;7.24;nan
21153;BME280;10734;44.792;20.482;2022-11-20T02:02:14;99062.31;;;7.25;nan
21153;BME280;10734;44.792;20.482;2022-11-20T02:04:41;99068.53;;;7.25;nan
21153;BME280;10734;44.792;20.482;2022-11-20T02:07:08;99082.78;;;7.26;nan
21153;BME280;10734;44.792;20.482;2022-11-20T02:09:34;99087.19;;;7.27;nan
21153;BME280;10734;44.792;20.482;2022-11-20T02:12:02;99092.56;;;7.27;nan
21153;BME280;10734;44.792;20.482;2022-11-20T02:14:29;99095.13;;;7.28;nan
21153;BME280;10734;44.792;20.482;2022-11-20T02:16:57;99092.34;;;7.30;nan
21153;BME280;10734;44.792;20.482;2022-11-20T02:19:27;99085.19;;;7.30;nan
21153;BME280;10734;44.792;20.482;2022-11-20T02:22:00;99081.72;;;7.28;nan
21153;BME280;10734;44.792;20.482;2022-11-20T02:24:28;99078.19;;;7.28;nan
21153;BME280;10734;44.792;20.482;2022-11-20T02:27:09;99079.22;;;7.25;nan
21153;BME280;10734;44.792;20.482;2022-11-20T02:29:57;99073.88;;;7.25;nan
21153;BME280;10734;44.792;20.482;2022-11-20T02:32:32;99067.56;;;7.26;nan
21153;BME280;10734;44.792;20.482;2022-11-20T02:37:46;99060.50;;;7.25;nan
21153;BME280;10734;44.792;20.482;2022-11-20T02:40:14;99051.59;;;7.25;nan
21153;BME280;10734;44.792;20.482;2022-11-20T02:42:41;99049.78;;;7.25;nan
21153;BME280;10734;44.792;20.482;2022-11-20T02:45:08;99062.31;;;7.25;nan
21153;BME280;10734;44.792;20.482;2022-11-20T02:47:34;99059.53;;;7.26;nan
21153;BME280;10734;44.792;20.482;2022-11-20T02:50:02;99058.59;;;7.27;nan
21153;BME280;10734;44.792;20.482;2022-11-20T02:52:29;99064.63;;;7.31;nan
21153;BME280;10734;44.792;20.482;2022-11-20T02:54:56;99063.78;;;7.30;nan
21153;BME280;10734;44.792;20.482;2022-11-20T02:57:23;99067.31;;;7.31;nan
21153;BME280;10734;44.792;20.482;2022-11-20T02:59:49;99068.25;;;7.30;nan
21153;BME280;10734;44.792;20.482;2022-11-20T03:02:16;99074.50;;;7.30;nan
21153;BME280;10734;44.792;20.482;2022-11-20T03:04:43;99086.06;;;7.31;nan
21153;BME280;10734;44.792;20.482;2022-11-20T03:07:09;99089.66;;;7.30;nan
21153;BME280;10734;44.792;20.482;2022-11-20T03:09:36;99089.59;;;7.31;nan
21153;BME280;10734;44.792;20.482;2022-11-20T03:12:03;99087.78;;;7.32;nan
21153;BME280;10734;44.792;20.482;2022-11-20T03:14:30;99088.56;;;7.34;nan
21153;BME280;10734;44.792;20.482;2022-11-20T03:16:57;99080.53;;;7.34;nan
21153;BME280;10734;44.792;20.482;2022-11-20T03:19:23;99068.84;;;7.35;nan
21153;BME280;10734;44.792;20.482;2022-11-20T03:21:50;99070.75;;;7.33;nan
21153;BME280;10734;44.792;20.482;2022-11-20T03:24:17;99077.16;;;7.30;nan
21153;BME280;10734;44.792;20.482;2022-11-20T03:26:43;99077.91;;;7.32;nan
21153;BME280;10734;44.792;20.482;2022-11-20T03:29:10;99089.31;;;7.36;nan
21153;BME280;10734;44.792;20.482;2022-11-20T03:31:39;99084.75;;;7.38;nan
21153;BME280;10734;44.792;20.482;2022-11-20T03:34:07;99087.31;;;7.40;nan
21153;BME280;10734;44.792;20.482;2022-11-20T03:36:35;99093.34;;;7.43;nan
21153;BME280;10734;44.792;20.482;2022-11-20T03:39:03;99088.78;;;7.45;nan
21153;BME280;10734;44.792;20.482;2022-11-20T03:41:31;99095.84;;;7.46;nan
21153;BME280;10734;44.792;20.482;2022-11-20T03:44:00;99101.22;;;7.46;nan
21153;BME280;10734;44.792;20.482;2022-11-20T03:46:28;99101.31;;;7.45;nan
21153;BME280;10734;44.792;20.482;2022-11-20T03:48:55;99096.81;;;7.45;nan
21153;BME280;10734;44.792;20.482;2022-11-20T03:51:33;99085.31;;;7.43;nan
21153;BME280;10734;44.792;20.482;2022-11-20T03:54:06;99087.13;;;7.43;nan
21153;BME280;10734;44.792;20.482;2022-11-20T03:56:35;99085.44;;;7.42;nan
21153;BME280;10734;44.792;20.482;2022-11-20T03:59:02;99089.06;;;7.41;nan
21153;BME280;10734;44.792;20.482;2022-11-20T04:01:32;99076.41;;;7.43;nan
21153;BME280;10734;44.792;20.482;2022-11-20T04:03:59;99080.06;;;7.42;nan
21153;BME280;10734;44.792;20.482;2022-11-20T04:06:29;99072.03;;;7.42;nan
21153;BME280;10734;44.792;20.482;2022-11-20T04:08:57;99060.34;;;7.43;nan
21153;BME280;10734;44.792;20.482;2022-11-20T04:11:27;99069.34;;;7.42;nan
21153;BME280;10734;44.792;20.482;2022-11-20T04:13:56;99061.31;;;7.42;nan
21153;BME280;10734;44.792;20.482;2022-11-20T04:16:24;99071.25;;;7.40;nan
21153;BME280;10734;44.792;20.482;2022-11-20T04:18:55;99078.41;;;7.39;nan
21153;BME280;10734;44.792;20.482;2022-11-20T04:21:23;99074.22;;;7.35;nan
21153;BME280;10734;44.792;20.482;2022-11-20T04:23:51;99073.34;;;7.34;nan
21153;BME280;10734;44.792;20.482;2022-11-20T04:26:20;99080.59;;;7.32;nan
21153;BME280;10734;44.792;20.482;2022-11-20T04:28:47;99084.25;;;7.31;nan
21153;BME280;10734;44.792;20.482;2022-11-20T04:31:16;99096.78;;;7.31;nan
21153;BME280;10734;44.792;20.482;2022-11-20T04:33:43;99095.03;;;7.30;nan
21153;BME280;10734;44.792;20.482;2022-11-20T04:36:18;99089.66;;;7.30;nan
21153;BME280;10734;44.792;20.482;2022-11-20T04:38:46;99095.03;;;7.30;nan
21153;BME280;10734;44.792;20.482;2022-11-20T04:41:18;99094.94;;;7.31;nan
21153;BME280;10734;44.792;20.482;2022-11-20T04:43:49;99087.78;;;7.32;nan
21153;BME280;10734;44.792;20.482;2022-11-20T04:46:18;99083.38;;;7.31;nan
21153;BME280;10734;44.792;20.482;2022-11-20T04:48:45;99090.34;;;7.33;nan
21153;BME280;10734;44.792;20.482;2022-11-20T04:51:12;99100.19;;;7.33;nan
21153;BME280;10734;44.792;20.482;2022-11-20T04:53:39;99101.28;;;7.30;nan
21153;BME280;10734;44.792;20.482;2022-11-20T04:56:08;99106.69;;;7.29;nan
21153;BME280;10734;44.792;20.482;2022-11-20T04:58:35;99107.72;;;7.26;nan
21153;BME280;10734;44.792;20.482;2022-11-20T05:01:03;99119.34;;;7.27;nan
21153;BME280;10734;44.792;20.482;2022-11-20T05:03:31;99128.47;;;7.23;nan
21153;BME280;10734;44.792;20.482;2022-11-20T05:06:05;99142.72;;;7.23;nan
21153;BME280;10734;44.792;20.482;2022-11-20T05:08:33;99132.91;;;7.24;nan
21153;BME280;10734;44.792;20.482;2022-11-20T05:11:04;99146.28;;;7.24;nan
21153;BME280;10734;44.792;20.482;2022-11-20T05:13:31;99151.81;;;7.21;nan
21153;BME280;10734;44.792;20.482;2022-11-20T05:16:10;99152.84;;;7.18;nan
21153;BME280;10734;44.792;20.482;2022-11-20T05:18:38;99154.03;;;7.13;nan
21153;BME280;10734;44.792;20.482;2022-11-20T05:21:05;99158.88;;;7.06;nan
21153;BME280;10734;44.792;20.482;2022-11-20T05:23:33;99152.84;;;7.02;nan
21153;BME280;10734;44.792;20.482;2022-11-20T05:25:59;99164.59;;;7.00;nan
21153;BME280;10734;44.792;20.482;2022-11-20T05:28:27;99168.19;;;6.99;nan
21153;BME280;10734;44.792;20.482;2022-11-20T05:30:55;99171.91;;;6.96;nan
21153;BME280;10734;44.792;20.482;2022-11-20T05:33:22;99174.59;;;6.96;nan
21153;BME280;10734;44.792;20.482;2022-11-20T05:35:49;99163.88;;;6.96;nan
21153;BME280;10734;44.792;20.482;2022-11-20T05:38:15;99168.31;;;6.97;nan
21153;BME280;10734;44.792;20.482;2022-11-20T05:40:42;99165.63;;;6.97;nan
21153;BME280;10734;44.792;20.482;2022-11-20T05:43:09;99164.94;;;6.94;nan
21153;BME280;10734;44.792;20.482;2022-11-20T05:45:36;99158.63;;;6.95;nan
21153;BME280;10734;44.792;20.482;2022-11-20T05:48:02;99148.09;;;6.92;nan
21153;BME280;10734;44.792;20.482;2022-11-20T05:50:29;99148.34;;;6.87;nan
21153;BME280;10734;44.792;20.482;2022-11-20T05:53:00;99148.50;;;6.84;nan
21153;BME280;10734;44.792;20.482;2022-11-20T05:55:27;99149.53;;;6.81;nan
21153;BME280;10734;44.792;20.482;2022-11-20T05:57:54;99148.78;;;6.79;nan
21153;BME280;10734;44.792;20.482;2022-11-20T06:00:21;99150.72;;;6.76;nan
21153;BME280;10734;44.792;20.482;2022-11-20T06:02:48;99150.03;;;6.72;nan
21153;BME280;10734;44.792;20.482;2022-11-20T06:05:15;99153.78;;;6.70;nan
21153;BME280;10734;44.792;20.482;2022-11-20T06:07:42;99155.50;;;6.71;nan
21153;BME280;10734;44.792;20.482;2022-11-20T06:10:09;99159.03;;;6.71;nan
21153;BME280;10734;44.792;20.482;2022-11-20T06:12:36;99142.09;;;6.71;nan
21153;BME280;10734;44.792;20.482;2022-11-20T06:15:04;99163.69;;;6.68;nan
21153;BME280;10734;44.792;20.482;2022-11-20T06:17:31;99169.03;;;6.68;nan
21153;BME280;10734;44.792;20.482;2022-11-20T06:19:57;99162.81;;;6.67;nan
21153;BME280;10734;44.792;20.482;2022-11-20T06:22:24;99170.00;;;6.67;nan
21153;BME280;10734;44.792;20.482;2022-11-20T06:24:51;99194.81;;;6.69;nan
21153;BME280;10734;44.792;20.482;2022-11-20T06:27:17;99222.47;;;6.69;nan
21153;BME280;10734;44.792;20.482;2022-11-20T06:29:44;99219.72;;;6.71;nan
21153;BME280;10734;44.792;20.482;2022-11-20T06:32:11;99213.34;;;6.73;nan
21153;BME280;10734;44.792;20.482;2022-11-20T06:34:37;99219.59;;;6.72;nan
21153;BME280;10734;44.792;20.482;2022-11-20T06:37:04;99218.84;;;6.70;nan
21153;BME280;10734;44.792;20.482;2022-11-20T06:39:31;99201.94;;;6.70;nan
21153;BME280;10734;44.792;20.482;2022-11-20T06:41:57;99221.53;;;6.70;nan
21153;BME280;10734;44.792;20.482;2022-11-20T06:44:25;99221.59;;;6.69;nan
21153;BME280;10734;44.792;20.482;2022-11-20T06:46:51;99221.69;;;6.67;nan
21153;BME280;10734;44.792;20.482;2022-11-20T06:49:18;99204.78;;;6.67;nan
21153;BME280;10734;44.792;20.482;2022-11-20T06:51:45;99208.38;;;6.66;nan
21153;BME280;10734;44.792;20.482;2022-11-20T06:54:12;99213.72;;;6.66;nan
21153;BME280;10734;44.792;20.482;2022-11-20T06:56:38;99227.09;;;6.66;nan
21153;BME280;10734;44.792;20.482;2022-11-20T06:59:06;99229.00;;;6.63;nan
21153;BME280;10734;44.792;20.482;2022-11-20T07:01:33;99230.81;;;6.63;nan
21153;BME280;10734;44.792;20.482;2022-11-20T07:04:00;99245.22;;;6.60;nan
21153;BME280;10734;44.792;20.482;2022-11-20T07:06:26;99251.19;;;6.66;nan
21153;BME280;10734;44.792;20.482;2022-11-20T07:08:53;99269.03;;;6.65;nan
21153;BME280;10734;44.792;20.482;2022-11-20T07:11:20;99272.59;;;6.66;nan
21153;BME280;10734;44.792;20.482;2022-11-20T07:13:46;99276.38;;;6.61;nan
21153;BME280;10734;44.792;20.482;2022-11-20T07:16:13;99282.59;;;6.62;nan
21153;BME280;10734;44.792;20.482;2022-11-20T07:18:40;99284.56;;;6.58;nan
21153;BME280;10734;44.792;20.482;2022-11-20T07:21:11;99287.22;;;6.58;nan
21153;BME280;10734;44.792;20.482;2022-11-20T07:23:38;99279.59;;;6.51;nan
21153;BME280;10734;44.792;20.482;2022-11-20T07:26:06;99300.00;;;6.53;nan
21153;BME280;10734;44.792;20.482;2022-11-20T07:28:33;99301.09;;;6.49;nan
21153;BME280;10734;44.792;20.482;2022-11-20T07:31:00;99310.91;;;6.49;nan
21153;BME280;10734;44.792;20.482;2022-11-20T07:33:27;99318.94;;;6.49;nan
21153;BME280;10734;44.792;20.482;2022-11-20T07:35:54;99307.72;;;6.42;nan
21153;BME280;10734;44.792;20.482;2022-11-20T07:38:21;99290.63;;;6.45;nan
21153;BME280;10734;44.792;20.482;2022-11-20T07:40:47;99290.56;;;6.46;nan
21153;BME280;10734;44.792;20.482;2022-11-20T07:43:15;99284.97;;;6.51;nan
21153;BME280;10734;44.792;20.482;2022-11-20T07:45:42;99306.31;;;6.52;nan
21153;BME280;10734;44.792;20.482;2022-11-20T07:48:08;99326.91;;;6.50;nan
21153;BME280;10734;44.792;20.482;2022-11-20T07:50:35;99325.38;;;6.45;nan
21153;BME280;10734;44.792;20.482;2022-11-20T07:53:03;99333.66;;;6.40;nan
21153;BME280;10734;44.792;20.482;2022-11-20T07:55:31;99346.06;;;6.41;nan
21153;BME280;10734;44.792;20.482;2022-11-20T07:57:59;99334.47;;;6.42;nan
21153;BME280;10734;44.792;20.482;2022-11-20T08:00:26;99335.63;;;6.36;nan
21153;BME280;10734;44.792;20.482;2022-11-20T08:02:53;99345.81;;;6.28;nan
21153;BME280;10734;44.792;20.482;2022-11-20T08:05:20;99360.44;;;6.21;nan
